Japan Airlines Virtual Airport Information Service

Seattle Tacoma International Airport

ICAO: KSEA Country: United States
Latitude: 47.4482 Longitude: -122.311
Latest Arrival : ASA977 (KPSP-KSEA) Latest Departure : ASA656 (KSEA-KPHX)


WX CaptureLIVE
Data provided by noaa.gov | Fetched at 17:37:25

METAR : KSEA 291653Z 02012KT 10SM CLR 17/12 A3011 RMK AO2 SLP200 T01670122

TAF : KSEA 291457Z 2915/3018 01010KT P6SM SKC FM292200 35008KT P6SM SKC FM300400 VRB03KT P6SM BKN200 FM301500 17006KT P6SM SCT200


Runway Data for KSEA
Data provided by openaviationdata.com

Runway ID Mag Var Hdg Length Elevation Surface ILS Freq ILS Id ILS Slope
16L 19 161° 11894 ft 362 ft Asphalt 110.3 ISNQ 3
16R 19 161° 9421 ft 362 ft Concrete 111.7 ISZI 3
34L 19 341° 9421 ft 362 ft Concrete 111.7 ITUC 3
34R 19 341° 11894 ft 362 ft Asphalt 110.3 ISEA 2

Seattle Tacoma International Airport, United States
Use only for reference purposes



Not for navigational purposes.